sensor_id;sensor_type;location;lat;lon;timestamp;pressure;altitude;pressure_sealevel;temperature;humidity
76132;BME280;64877;50.994;13.650;2023-09-19T00:00:42;98872.06;;;17.98;100.00
76132;BME280;64877;50.994;13.650;2023-09-19T00:03:09;98877.59;;;18.04;100.00
76132;BME280;64877;50.994;13.650;2023-09-19T00:05:36;98865.28;;;18.08;100.00
76132;BME280;64877;50.994;13.650;2023-09-19T00:08:03;98864.44;;;18.08;100.00
76132;BME280;64877;50.994;13.650;2023-09-19T00:10:30;98858.22;;;18.14;100.00
76132;BME280;64877;50.994;13.650;2023-09-19T00:13:02;98857.66;;;18.19;100.00
76132;BME280;64877;50.994;13.650;2023-09-19T00:15:40;98862.94;;;18.20;100.00
76132;BME280;64877;50.994;13.650;2023-09-19T00:18:07;98862.56;;;18.23;100.00
76132;BME280;64877;50.994;13.650;2023-09-19T00:20:37;98873.59;;;18.30;100.00
76132;BME280;64877;50.994;13.650;2023-09-19T00:23:04;98858.50;;;18.34;100.00
76132;BME280;64877;50.994;13.650;2023-09-19T00:25:35;98847.19;;;18.37;100.00
76132;BME280;64877;50.994;13.650;2023-09-19T00:28:01;98850.50;;;18.32;100.00
76132;BME280;64877;50.994;13.650;2023-09-19T00:30:27;98847.19;;;18.37;100.00
76132;BME280;64877;50.994;13.650;2023-09-19T00:32:52;98842.56;;;18.38;100.00
76132;BME280;64877;50.994;13.650;2023-09-19T00:35:18;98835.41;;;18.37;100.00
76132;BME280;64877;50.994;13.650;2023-09-19T00:37:50;98834.38;;;18.38;100.00
76132;BME280;64877;50.994;13.650;2023-09-19T00:40:16;98837.03;;;18.46;100.00
76132;BME280;64877;50.994;13.650;2023-09-19T00:42:45;98837.19;;;18.44;100.00
76132;BME280;64877;50.994;13.650;2023-09-19T00:45:13;98843.34;;;18.46;100.00
76132;BME280;64877;50.994;13.650;2023-09-19T00:47:45;98830.59;;;18.53;100.00
76132;BME280;64877;50.994;13.650;2023-09-19T00:50:12;98838.13;;;18.51;100.00
76132;BME280;64877;50.994;13.650;2023-09-19T00:52:40;98829.09;;;18.51;100.00
76132;BME280;64877;50.994;13.650;2023-09-19T00:55:10;98832.19;;;18.48;100.00
76132;BME280;64877;50.994;13.650;2023-09-19T00:57:36;98841.44;;;18.47;100.00
76132;BME280;64877;50.994;13.650;2023-09-19T01:00:06;98843.13;;;18.48;100.00
76132;BME280;64877;50.994;13.650;2023-09-19T01:02:34;98850.78;;;18.52;100.00
76132;BME280;64877;50.994;13.650;2023-09-19T01:05:00;98845.59;;;18.43;100.00
76132;BME280;64877;50.994;13.650;2023-09-19T01:07:27;98847.75;;;18.47;100.00
76132;BME280;64877;50.994;13.650;2023-09-19T01:09:58;98843.06;;;18.41;100.00
76132;BME280;64877;50.994;13.650;2023-09-19T01:12:33;98842.22;;;18.41;100.00
76132;BME280;64877;50.994;13.650;2023-09-19T01:17:53;98862.28;;;18.33;100.00
76132;BME280;64877;50.994;13.650;2023-09-19T01:20:36;98864.81;;;18.34;100.00
76132;BME280;64877;50.994;13.650;2023-09-19T01:29:12;98854.28;;;18.31;100.00
76132;BME280;64877;50.994;13.650;2023-09-19T01:31:40;98863.81;;;18.36;100.00
76132;BME280;64877;50.994;13.650;2023-09-19T01:34:07;98851.91;;;18.28;100.00
76132;BME280;64877;50.994;13.650;2023-09-19T01:36:37;98857.94;;;18.24;100.00
76132;BME280;64877;50.994;13.650;2023-09-19T01:39:05;98858.41;;;18.27;100.00
76132;BME280;64877;50.994;13.650;2023-09-19T01:44:22;98855.88;;;18.26;100.00
76132;BME280;64877;50.994;13.650;2023-09-19T01:46:49;98854.28;;;18.31;100.00
76132;BME280;64877;50.994;13.650;2023-09-19T01:49:27;98852.59;;;18.30;100.00
76132;BME280;64877;50.994;13.650;2023-09-19T01:52:04;98858.50;;;18.34;100.00
76132;BME280;64877;50.994;13.650;2023-09-19T01:54:46;98853.16;;;18.41;100.00
76132;BME280;64877;50.994;13.650;2023-09-19T01:57:28;98856.16;;;18.46;100.00
76132;BME280;64877;50.994;13.650;2023-09-19T02:00:01;98866.53;;;18.50;100.00
76132;BME280;64877;50.994;13.650;2023-09-19T02:02:40;98876.22;;;18.53;100.00
76132;BME280;64877;50.994;13.650;2023-09-19T02:05:06;98872.44;;;18.54;100.00
76132;BME280;64877;50.994;13.650;2023-09-19T02:07:31;98876.63;;;18.50;100.00
76132;BME280;64877;50.994;13.650;2023-09-19T02:10:00;98876.44;;;18.51;100.00
76132;BME280;64877;50.994;13.650;2023-09-19T02:12:26;98877.34;;;18.58;100.00
76132;BME280;64877;50.994;13.650;2023-09-19T02:14:51;98879.91;;;18.60;100.00
76132;BME280;64877;50.994;13.650;2023-09-19T02:17:17;98879.31;;;18.65;99.55
76132;BME280;64877;50.994;13.650;2023-09-19T02:19:42;98885.66;;;18.65;99.25
76132;BME280;64877;50.994;13.650;2023-09-19T02:22:08;98883.28;;;18.62;99.40
76132;BME280;64877;50.994;13.650;2023-09-19T02:24:38;98882.94;;;18.65;99.40
76132;BME280;64877;50.994;13.650;2023-09-19T02:27:04;98879.16;;;18.66;99.27
76132;BME280;64877;50.994;13.650;2023-09-19T02:29:31;98879.25;;;18.73;98.17
76132;BME280;64877;50.994;13.650;2023-09-19T02:31:57;98888.31;;;18.73;98.74
76132;BME280;64877;50.994;13.650;2023-09-19T02:34:22;98887.94;;;18.76;98.28
76132;BME280;64877;50.994;13.650;2023-09-19T02:36:48;98885.97;;;18.70;98.53
76132;BME280;64877;50.994;13.650;2023-09-19T02:39:15;98895.19;;;18.69;98.93
76132;BME280;64877;50.994;13.650;2023-09-19T02:41:40;98890.59;;;18.70;98.82
76132;BME280;64877;50.994;13.650;2023-09-19T02:44:09;98899.72;;;18.62;99.47
76132;BME280;64877;50.994;13.650;2023-09-19T02:46:35;98902.84;;;18.74;98.48
76132;BME280;64877;50.994;13.650;2023-09-19T02:52:14;98904.94;;;18.72;98.42
76132;BME280;64877;50.994;13.650;2023-09-19T02:54:40;98898.59;;;18.71;97.99
76132;BME280;64877;50.994;13.650;2023-09-19T02:57:05;98897.19;;;18.75;97.74
76132;BME280;64877;50.994;13.650;2023-09-19T02:59:32;98900.31;;;18.72;97.28
76132;BME280;64877;50.994;13.650;2023-09-19T03:01:57;98905.41;;;18.75;97.63
76132;BME280;64877;50.994;13.650;2023-09-19T03:04:24;98907.66;;;18.72;97.18
76132;BME280;64877;50.994;13.650;2023-09-19T03:06:51;98907.47;;;18.73;96.79
76132;BME280;64877;50.994;13.650;2023-09-19T03:09:18;98903.56;;;18.68;97.35
76132;BME280;64877;50.994;13.650;2023-09-19T03:11:44;98912.66;;;18.68;97.17
76132;BME280;64877;50.994;13.650;2023-09-19T03:14:12;98930.06;;;18.67;97.05
76132;BME280;64877;50.994;13.650;2023-09-19T03:16:37;98922.38;;;18.71;96.70
76132;BME280;64877;50.994;13.650;2023-09-19T03:19:03;98921.34;;;18.72;96.54
76132;BME280;64877;50.994;13.650;2023-09-19T03:21:31;98940.50;;;18.72;96.91
76132;BME280;64877;50.994;13.650;2023-09-19T03:23:56;98933.50;;;18.69;96.98
76132;BME280;64877;50.994;13.650;2023-09-19T03:26:21;98938.66;;;18.64;97.08
76132;BME280;64877;50.994;13.650;2023-09-19T03:28:47;98940.81;;;18.54;97.68
76132;BME280;64877;50.994;13.650;2023-09-19T03:31:13;98930.34;;;18.57;97.35
76132;BME280;64877;50.994;13.650;2023-09-19T03:33:39;98938.19;;;18.60;96.81
76132;BME280;64877;50.994;13.650;2023-09-19T03:36:05;98940.75;;;18.62;96.16
76132;BME280;64877;50.994;13.650;2023-09-19T03:38:31;98942.44;;;18.63;96.26
76132;BME280;64877;50.994;13.650;2023-09-19T03:40:58;98938.38;;;18.59;96.39
76132;BME280;64877;50.994;13.650;2023-09-19T03:43:24;98940.94;;;18.60;96.73
76132;BME280;64877;50.994;13.650;2023-09-19T03:45:49;98936.41;;;18.68;96.19
76132;BME280;64877;50.994;13.650;2023-09-19T03:48:17;98939.13;;;18.53;96.94
76132;BME280;64877;50.994;13.650;2023-09-19T03:50:43;98941.09;;;18.59;96.55
76132;BME280;64877;50.994;13.650;2023-09-19T03:53:09;98936.31;;;18.61;96.49
76132;BME280;64877;50.994;13.650;2023-09-19T03:55:35;98932.34;;;18.64;96.43
76132;BME280;64877;50.994;13.650;2023-09-19T03:58:06;98938.19;;;18.60;96.89
76132;BME280;64877;50.994;13.650;2023-09-19T04:00:32;98946.84;;;18.49;97.27
76132;BME280;64877;50.994;13.650;2023-09-19T04:02:58;98924.41;;;18.54;97.43
76132;BME280;64877;50.994;13.650;2023-09-19T04:05:24;98945.06;;;18.56;97.41
76132;BME280;64877;50.994;13.650;2023-09-19T04:07:49;98941.22;;;18.51;96.75
76132;BME280;64877;50.994;13.650;2023-09-19T04:10:15;98957.34;;;18.60;95.82
76132;BME280;64877;50.994;13.650;2023-09-19T04:12:50;98966.41;;;18.61;95.99
76132;BME280;64877;50.994;13.650;2023-09-19T04:15:16;98964.41;;;18.55;96.39
76132;BME280;64877;50.994;13.650;2023-09-19T04:17:42;98960.16;;;18.52;96.60
76132;BME280;64877;50.994;13.650;2023-09-19T04:20:08;98966.56;;;18.59;96.09
76132;BME280;64877;50.994;13.650;2023-09-19T04:22:33;98960.25;;;18.59;96.15
76132;BME280;64877;50.994;13.650;2023-09-19T04:24:59;98973.75;;;18.60;95.84
76132;BME280;64877;50.994;13.650;2023-09-19T04:27:25;98958.94;;;18.55;95.63
76132;BME280;64877;50.994;13.650;2023-09-19T04:29:50;98971.88;;;18.61;95.58
76132;BME280;64877;50.994;13.650;2023-09-19T04:32:18;98972.53;;;18.63;94.71
76132;BME280;64877;50.994;13.650;2023-09-19T04:34:43;98976.66;;;18.59;95.66
76132;BME280;64877;50.994;13.650;2023-09-19T04:37:09;98977.13;;;18.63;95.31
76132;BME280;64877;50.994;13.650;2023-09-19T04:39:34;98987.03;;;18.49;96.52
76132;BME280;64877;50.994;13.650;2023-09-19T04:42:00;98986.66;;;18.52;96.27
76132;BME280;64877;50.994;13.650;2023-09-19T04:44:25;98993.81;;;18.53;96.50
76132;BME280;64877;50.994;13.650;2023-09-19T04:46:50;98991.09;;;18.53;95.90
76132;BME280;64877;50.994;13.650;2023-09-19T04:49:16;98981.75;;;18.47;96.71
76132;BME280;64877;50.994;13.650;2023-09-19T04:51:41;98988.13;;;18.40;96.25
76132;BME280;64877;50.994;13.650;2023-09-19T04:54:07;98992.13;;;18.52;96.02
76132;BME280;64877;50.994;13.650;2023-09-19T04:56:33;98991.78;;;18.55;96.00
76132;BME280;64877;50.994;13.650;2023-09-19T04:58:59;98991.78;;;18.55;94.94
76132;BME280;64877;50.994;13.650;2023-09-19T05:01:25;98995.16;;;18.57;94.54
76132;BME280;64877;50.994;13.650;2023-09-19T05:03:51;99013.25;;;18.58;94.22
76132;BME280;64877;50.994;13.650;2023-09-19T05:06:20;99014.03;;;18.67;93.73
76132;BME280;64877;50.994;13.650;2023-09-19T05:08:49;99016.09;;;18.65;92.87
76132;BME280;64877;50.994;13.650;2023-09-19T05:11:21;99017.59;;;18.67;92.71
76132;BME280;64877;50.994;13.650;2023-09-19T05:13:48;99020.03;;;18.70;92.26
76132;BME280;64877;50.994;13.650;2023-09-19T05:16:15;99027.84;;;18.73;92.10
76132;BME280;64877;50.994;13.650;2023-09-19T05:18:41;99028.22;;;18.70;91.58
76132;BME280;64877;50.994;13.650;2023-09-19T05:21:07;99025.50;;;18.70;92.17
76132;BME280;64877;50.994;13.650;2023-09-19T05:23:33;99029.53;;;18.74;91.37
76132;BME280;64877;50.994;13.650;2023-09-19T05:25:59;99032.09;;;18.76;91.37
76132;BME280;64877;50.994;13.650;2023-09-19T05:28:25;99033.78;;;18.77;90.92
76132;BME280;64877;50.994;13.650;2023-09-19T05:30:52;99035.19;;;18.73;90.88
76132;BME280;64877;50.994;13.650;2023-09-19T05:33:19;99040.09;;;18.77;90.21
76132;BME280;64877;50.994;13.650;2023-09-19T05:35:44;99039.75;;;18.80;90.04
76132;BME280;64877;50.994;13.650;2023-09-19T05:38:12;99050.69;;;18.80;90.29
76132;BME280;64877;50.994;13.650;2023-09-19T05:40:39;99059.63;;;18.89;90.07
76132;BME280;64877;50.994;13.650;2023-09-19T05:43:07;99060.13;;;18.93;89.52
76132;BME280;64877;50.994;13.650;2023-09-19T05:45:33;99060.22;;;18.99;89.23
76132;BME280;64877;50.994;13.650;2023-09-19T05:48:09;99068.72;;;19.04;88.53
76132;BME280;64877;50.994;13.650;2023-09-19T05:50:36;99069.38;;;19.06;89.11
76132;BME280;64877;50.994;13.650;2023-09-19T05:53:02;99068.91;;;19.03;89.36
76132;BME280;64877;50.994;13.650;2023-09-19T05:55:29;99077.31;;;19.16;89.19
76132;BME280;64877;50.994;13.650;2023-09-19T05:57:55;99066.94;;;19.26;89.26
76132;BME280;64877;50.994;13.650;2023-09-19T06:00:23;99065.41;;;19.38;87.82
76132;BME280;64877;50.994;13.650;2023-09-19T06:02:55;99068.81;;;19.41;87.22
76132;BME280;64877;50.994;13.650;2023-09-19T06:05:26;99069.44;;;19.57;87.19
76132;BME280;64877;50.994;13.650;2023-09-19T06:07:52;99076.81;;;19.57;86.97
76132;BME280;64877;50.994;13.650;2023-09-19T06:10:18;99061.94;;;19.59;85.23
76132;BME280;64877;50.994;13.650;2023-09-19T06:12:46;99067.84;;;19.63;84.93
76132;BME280;64877;50.994;13.650;2023-09-19T06:15:12;99071.81;;;19.75;84.98
76132;BME280;64877;50.994;13.650;2023-09-19T06:17:48;99072.75;;;19.68;85.71
76132;BME280;64877;50.994;13.650;2023-09-19T06:20:14;99071.41;;;19.78;85.53
76132;BME280;64877;50.994;13.650;2023-09-19T06:22:41;99076.94;;;20.21;88.15
76132;BME280;64877;50.994;13.650;2023-09-19T06:25:11;99073.25;;;20.29;82.34
76132;BME280;64877;50.994;13.650;2023-09-19T06:27:40;99077.63;;;20.66;81.56
76132;BME280;64877;50.994;13.650;2023-09-19T06:30:10;99080.59;;;20.71;79.19
76132;BME280;64877;50.994;13.650;2023-09-19T06:32:42;99084.09;;;20.86;78.34
76132;BME280;64877;50.994;13.650;2023-09-19T06:35:12;99085.03;;;20.94;78.15
76132;BME280;64877;50.994;13.650;2023-09-19T06:37:38;99093.88;;;21.24;76.38
76132;BME280;64877;50.994;13.650;2023-09-19T06:40:08;99098.22;;;21.39;75.31
76132;BME280;64877;50.994;13.650;2023-09-19T06:42:39;99107.59;;;21.52;74.14
76132;BME280;64877;50.994;13.650;2023-09-19T06:45:06;99106.44;;;21.74;72.96
76132;BME280;64877;50.994;13.650;2023-09-19T06:47:32;99111.81;;;21.96;71.81
76132;BME280;64877;50.994;13.650;2023-09-19T06:49:57;99111.19;;;22.07;71.22
76132;BME280;64877;50.994;13.650;2023-09-19T06:52:23;99122.72;;;22.24;68.74
76132;BME280;64877;50.994;13.650;2023-09-19T06:54:48;99116.84;;;22.40;68.84
76132;BME280;64877;50.994;13.650;2023-09-19T06:57:16;99120.25;;;22.68;66.85
76132;BME280;64877;50.994;13.650;2023-09-19T06:59:41;99131.09;;;22.96;64.45
76132;BME280;64877;50.994;13.650;2023-09-19T07:02:07;99139.34;;;22.83;64.58
76132;BME280;64877;50.994;13.650;2023-09-19T07:04:33;99154.63;;;23.12;63.70
76132;BME280;64877;50.994;13.650;2023-09-19T07:06:59;99148.22;;;23.32;61.81
76132;BME280;64877;50.994;13.650;2023-09-19T07:09:24;99142.75;;;23.12;60.51
76132;BME280;64877;50.994;13.650;2023-09-19T07:11:52;99144.00;;;23.16;60.83
76132;BME280;64877;50.994;13.650;2023-09-19T07:14:18;99133.03;;;23.03;59.63
76132;BME280;64877;50.994;13.650;2023-09-19T07:16:44;99149.97;;;23.00;59.93
76132;BME280;64877;50.994;13.650;2023-09-19T07:19:10;99163.94;;;22.91;60.84
76132;BME280;64877;50.994;13.650;2023-09-19T07:21:36;99167.03;;;22.55;61.96
76132;BME280;64877;50.994;13.650;2023-09-19T07:24:04;99164.75;;;22.04;63.04
76132;BME280;64877;50.994;13.650;2023-09-19T07:26:29;99180.78;;;21.94;63.70
76132;BME280;64877;50.994;13.650;2023-09-19T07:28:56;99183.81;;;21.71;64.05
76132;BME280;64877;50.994;13.650;2023-09-19T07:31:23;99182.03;;;21.57;65.51
76132;BME280;64877;50.994;13.650;2023-09-19T07:33:48;99177.94;;;21.46;65.50
76132;BME280;64877;50.994;13.650;2023-09-19T07:36:14;99185.84;;;21.56;65.57
76132;BME280;64877;50.994;13.650;2023-09-19T07:38:40;99197.94;;;21.33;64.75
76132;BME280;64877;50.994;13.650;2023-09-19T07:41:07;99196.22;;;21.32;64.94
76132;BME280;64877;50.994;13.650;2023-09-19T07:43:34;99202.56;;;21.33;64.12
76132;BME280;64877;50.994;13.650;2023-09-19T07:46:08;99207.44;;;21.59;63.61
76132;BME280;64877;50.994;13.650;2023-09-19T07:48:37;99206.91;;;22.11;61.71
76132;BME280;64877;50.994;13.650;2023-09-19T07:51:08;99206.94;;;22.18;60.32
76132;BME280;64877;50.994;13.650;2023-09-19T07:53:35;99209.81;;;22.03;60.01
76132;BME280;64877;50.994;13.650;2023-09-19T07:56:04;99207.66;;;21.99;60.95
76132;BME280;64877;50.994;13.650;2023-09-19T07:58:30;99205.41;;;21.74;59.04
76132;BME280;64877;50.994;13.650;2023-09-19T08:01:01;99212.22;;;21.78;60.11
76132;BME280;64877;50.994;13.650;2023-09-19T08:03:27;99204.94;;;22.05;61.02
76132;BME280;64877;50.994;13.650;2023-09-19T08:05:52;99201.47;;;22.31;59.65
76132;BME280;64877;50.994;13.650;2023-09-19T08:08:18;99199.84;;;22.50;59.82
76132;BME280;64877;50.994;13.650;2023-09-19T08:10:43;99208.00;;;22.91;58.48
76132;BME280;64877;50.994;13.650;2023-09-19T08:13:14;99209.06;;;23.17;56.39
76132;BME280;64877;50.994;13.650;2023-09-19T08:15:43;99208.03;;;23.18;54.62
76132;BME280;64877;50.994;13.650;2023-09-19T08:18:14;99210.38;;;23.14;54.47
76132;BME280;64877;50.994;13.650;2023-09-19T08:20:40;99206.47;;;22.82;55.38
76132;BME280;64877;50.994;13.650;2023-09-19T08:23:07;99210.72;;;22.78;55.42
76132;BME280;64877;50.994;13.650;2023-09-19T08:25:34;99207.03;;;22.44;55.83
76132;BME280;64877;50.994;13.650;2023-09-19T08:27:59;99202.03;;;22.68;55.31
76132;BME280;64877;50.994;13.650;2023-09-19T08:30:27;99203.78;;;22.95;54.62
76132;BME280;64877;50.994;13.650;2023-09-19T08:33:01;99211.41;;;23.00;53.01
76132;BME280;64877;50.994;13.650;2023-09-19T08:35:30;99213.31;;;23.00;52.46
76132;BME280;64877;50.994;13.650;2023-09-19T08:37:55;99217.13;;;22.99;52.99
76132;BME280;64877;50.994;13.650;2023-09-19T08:40:22;99211.63;;;23.12;53.13
76132;BME280;64877;50.994;13.650;2023-09-19T08:42:52;99225.81;;;23.22;53.11
76132;BME280;64877;50.994;13.650;2023-09-19T08:45:20;99227.94;;;23.27;52.53
76132;BME280;64877;50.994;13.650;2023-09-19T08:47:53;99227.28;;;22.91;53.15
76132;BME280;64877;50.994;13.650;2023-09-19T08:50:29;99231.63;;;22.59;55.01
76132;BME280;64877;50.994;13.650;2023-09-19T08:52:55;99237.38;;;22.64;55.10
76132;BME280;64877;50.994;13.650;2023-09-19T08:55:26;99238.38;;;22.57;55.79
76132;BME280;64877;50.994;13.650;2023-09-19T08:58:00;99230.13;;;22.57;55.80
76132;BME280;64877;50.994;13.650;2023-09-19T09:00:28;99231.25;;;22.82;55.21
76132;BME280;64877;50.994;13.650;2023-09-19T09:02:55;99232.38;;;22.94;55.13
76132;BME280;64877;50.994;13.650;2023-09-19T09:05:23;99229.00;;;22.92;53.80
76132;BME280;64877;50.994;13.650;2023-09-19T09:07:50;99224.28;;;22.73;52.80
76132;BME280;64877;50.994;13.650;2023-09-19T09:10:18;99227.03;;;22.73;54.12
76132;BME280;64877;50.994;13.650;2023-09-19T09:12:47;99220.72;;;23.06;53.10
76132;BME280;64877;50.994;13.650;2023-09-19T09:15:13;99223.53;;;23.32;52.72
76132;BME280;64877;50.994;13.650;2023-09-19T09:17:41;99237.66;;;23.95;51.58
76132;BME280;64877;50.994;13.650;2023-09-19T09:20:08;99229.19;;;23.90;49.17
76132;BME280;64877;50.994;13.650;2023-09-19T09:22:35;99240.25;;;23.51;50.17
76132;BME280;64877;50.994;13.650;2023-09-19T09:25:01;99240.69;;;23.47;49.62
76132;BME280;64877;50.994;13.650;2023-09-19T09:27:29;99236.22;;;23.20;50.67
76132;BME280;64877;50.994;13.650;2023-09-19T09:29:55;99234.50;;;23.06;51.90
76132;BME280;64877;50.994;13.650;2023-09-19T09:34:54;99243.72;;;22.65;52.39
76132;BME280;64877;50.994;13.650;2023-09-19T09:37:20;99245.34;;;22.39;53.86
76132;BME280;64877;50.994;13.650;2023-09-19T09:39:53;99248.09;;;22.39;53.72
76132;BME280;64877;50.994;13.650;2023-09-19T09:45:26;99253.88;;;22.58;55.02
76132;BME280;64877;50.994;13.650;2023-09-19T09:47:58;99257.97;;;22.27;54.78
76132;BME280;64877;50.994;13.650;2023-09-19T09:50:32;99254.22;;;22.07;55.06
76132;BME280;64877;50.994;13.650;2023-09-19T09:53:07;99251.47;;;22.07;55.88
76132;BME280;64877;50.994;13.650;2023-09-19T09:56:04;99258.03;;;22.06;55.64
76132;BME280;64877;50.994;13.650;2023-09-19T09:58:37;99256.31;;;21.98;56.40
76132;BME280;64877;50.994;13.650;2023-09-19T10:01:06;99247.97;;;22.13;56.29
76132;BME280;64877;50.994;13.650;2023-09-19T10:03:40;99247.25;;;22.45;55.89
76132;BME280;64877;50.994;13.650;2023-09-19T10:06:13;99242.22;;;22.56;54.35
76132;BME280;64877;50.994;13.650;2023-09-19T10:11:47;99244.63;;;22.24;55.65
76132;BME280;64877;50.994;13.650;2023-09-19T10:14:20;99235.09;;;22.27;55.51
76132;BME280;64877;50.994;13.650;2023-09-19T10:16:49;99237.84;;;22.27;54.75
76132;BME280;64877;50.994;13.650;2023-09-19T10:19:21;99246.31;;;22.18;54.97
76132;BME280;64877;50.994;13.650;2023-09-19T10:21:50;99242.72;;;22.18;54.78
76132;BME280;64877;50.994;13.650;2023-09-19T10:24:19;99246.47;;;22.17;55.66
76132;BME280;64877;50.994;13.650;2023-09-19T10:26:46;99251.25;;;22.02;55.87
76132;BME280;64877;50.994;13.650;2023-09-19T10:29:13;99254.41;;;21.99;55.31
76132;BME280;64877;50.994;13.650;2023-09-19T10:31:42;99255.56;;;22.11;55.23
76132;BME280;64877;50.994;13.650;2023-09-19T10:34:14;99264.94;;;22.23;55.53
76132;BME280;64877;50.994;13.650;2023-09-19T10:36:44;99266.59;;;22.17;54.56
76132;BME280;64877;50.994;13.650;2023-09-19T10:39:10;99265.91;;;22.09;54.33
76132;BME280;64877;50.994;13.650;2023-09-19T10:41:37;99263.53;;;22.06;54.42
76132;BME280;64877;50.994;13.650;2023-09-19T10:44:04;99253.31;;;21.93;54.81
76132;BME280;64877;50.994;13.650;2023-09-19T10:46:32;99254.59;;;21.97;55.47
76132;BME280;64877;50.994;13.650;2023-09-19T10:49:02;99255.91;;;22.08;55.95
76132;BME280;64877;50.994;13.650;2023-09-19T10:51:39;99243.81;;;21.96;54.76
76132;BME280;64877;50.994;13.650;2023-09-19T10:54:11;99253.31;;;21.93;54.46
76132;BME280;64877;50.994;13.650;2023-09-19T10:56:42;99248.09;;;22.05;53.82
76132;BME280;64877;50.994;13.650;2023-09-19T10:59:17;99241.06;;;22.30;53.34
76132;BME280;64877;50.994;13.650;2023-09-19T11:07:08;99247.16;;;22.87;49.66
76132;BME280;64877;50.994;13.650;2023-09-19T11:09:55;99236.53;;;22.70;48.08
76132;BME280;64877;50.994;13.650;2023-09-19T11:15:07;99242.22;;;22.62;46.61
76132;BME280;64877;50.994;13.650;2023-09-19T11:17:40;99242.03;;;22.77;46.74
76132;BME280;64877;50.994;13.650;2023-09-19T11:20:20;99243.09;;;22.76;45.73
76132;BME280;64877;50.994;13.650;2023-09-19T11:30:42;99251.59;;;22.81;43.92
76132;BME280;64877;50.994;13.650;2023-09-19T11:33:23;99247.38;;;22.85;43.98
76132;BME280;64877;50.994;13.650;2023-09-19T11:36:12;99248.91;;;22.94;44.37
76132;BME280;64877;50.994;13.650;2023-09-19T11:46:17;99248.09;;;23.14;45.44
76132;BME280;64877;50.994;13.650;2023-09-19T11:48:52;99233.91;;;23.24;44.86
76132;BME280;64877;50.994;13.650;2023-09-19T11:51:22;99237.72;;;23.42;44.81
76132;BME280;64877;50.994;13.650;2023-09-19T11:53:50;99240.88;;;23.59;43.40
76132;BME280;64877;50.994;13.650;2023-09-19T11:56:24;99246.63;;;23.64;43.37
76132;BME280;64877;50.994;13.650;2023-09-19T11:58:52;99232.84;;;23.58;42.72
76132;BME280;64877;50.994;13.650;2023-09-19T12:01:29;99245.34;;;23.67;42.28
76132;BME280;64877;50.994;13.650;2023-09-19T12:03:57;99233.03;;;23.63;42.04
76132;BME280;64877;50.994;13.650;2023-09-19T12:06:24;99237.28;;;23.65;42.59
76132;BME280;64877;50.994;13.650;2023-09-19T12:08:51;99237.72;;;23.69;42.12
76132;BME280;64877;50.994;13.650;2023-09-19T12:11:21;99228.56;;;23.82;42.84
76132;BME280;64877;50.994;13.650;2023-09-19T12:13:48;99241.09;;;23.84;42.14
76132;BME280;64877;50.994;13.650;2023-09-19T12:16:20;99246.41;;;23.59;44.43
76132;BME280;64877;50.994;13.650;2023-09-19T12:18:50;99249.38;;;23.58;45.94
76132;BME280;64877;50.994;13.650;2023-09-19T12:21:31;99240.91;;;23.53;46.02
76132;BME280;64877;50.994;13.650;2023-09-19T12:23:58;99248.72;;;23.16;46.70
76132;BME280;64877;50.994;13.650;2023-09-19T12:26:26;99241.91;;;22.92;47.19
76132;BME280;64877;50.994;13.650;2023-09-19T12:28:54;99243.41;;;22.94;47.54
76132;BME280;64877;50.994;13.650;2023-09-19T12:31:20;99240.03;;;22.92;46.79
76132;BME280;64877;50.994;13.650;2023-09-19T12:33:46;99241.50;;;22.88;47.99
76132;BME280;64877;50.994;13.650;2023-09-19T12:36:21;99242.13;;;22.90;47.69
76132;BME280;64877;50.994;13.650;2023-09-19T12:38:54;99239.34;;;22.97;47.98
76132;BME280;64877;50.994;13.650;2023-09-19T12:41:21;99232.19;;;23.03;47.70
76132;BME280;64877;50.994;13.650;2023-09-19T12:43:47;99236.41;;;22.99;47.35
76132;BME280;64877;50.994;13.650;2023-09-19T12:46:13;99239.94;;;22.79;46.73
76132;BME280;64877;50.994;13.650;2023-09-19T12:48:40;99232.97;;;22.83;47.63
76132;BME280;64877;50.994;13.650;2023-09-19T12:51:12;99232.16;;;22.89;47.39
76132;BME280;64877;50.994;13.650;2023-09-19T12:53:39;99231.31;;;23.02;46.76
76132;BME280;64877;50.994;13.650;2023-09-19T12:56:16;99229.22;;;23.11;47.46
76132;BME280;64877;50.994;13.650;2023-09-19T12:58:51;99224.34;;;23.19;47.05
76132;BME280;64877;50.994;13.650;2023-09-19T13:01:16;99229.25;;;23.17;47.01
76132;BME280;64877;50.994;13.650;2023-09-19T13:03:42;99228.78;;;23.20;45.42
76132;BME280;64877;50.994;13.650;2023-09-19T13:06:08;99229.22;;;23.11;45.51
76132;BME280;64877;50.994;13.650;2023-09-19T13:08:37;99226.03;;;23.07;45.72
76132;BME280;64877;50.994;13.650;2023-09-19T13:11:15;99236.03;;;23.28;46.41
76132;BME280;64877;50.994;13.650;2023-09-19T13:16:15;99228.78;;;23.40;44.96
76132;BME280;64877;50.994;13.650;2023-09-19T13:18:49;99221.56;;;23.06;44.46
76132;BME280;64877;50.994;13.650;2023-09-19T13:21:17;99226.47;;;23.11;45.01
76132;BME280;64877;50.994;13.650;2023-09-19T13:23:53;99232.63;;;23.13;43.71
76132;BME280;64877;50.994;13.650;2023-09-19T13:26:25;99225.19;;;23.07;44.42
76132;BME280;64877;50.994;13.650;2023-09-19T13:28:50;99224.09;;;22.88;44.51
76132;BME280;64877;50.994;13.650;2023-09-19T13:31:16;99230.47;;;23.02;45.00
76132;BME280;64877;50.994;13.650;2023-09-19T13:33:47;99222.22;;;23.08;45.50
76132;BME280;64877;50.994;13.650;2023-09-19T13:36:13;99221.38;;;23.08;44.67
76132;BME280;64877;50.994;13.650;2023-09-19T13:38:40;99227.09;;;23.19;45.54
76132;BME280;64877;50.994;13.650;2023-09-19T13:41:08;99224.16;;;23.34;44.80
76132;BME280;64877;50.994;13.650;2023-09-19T13:43:35;99222.00;;;23.36;44.79